createdAt,value
2023-04-23T00:02:04.373Z,4.10
2023-04-23T00:04:39.970Z,4.10
2023-04-23T00:07:14.234Z,4.10
2023-04-23T00:09:51.094Z,4.00
2023-04-23T00:12:25.290Z,4.00
2023-04-23T00:14:59.399Z,3.90
2023-04-23T00:17:32.906Z,4.00
2023-04-23T00:20:07.589Z,3.90
2023-04-23T00:22:41.423Z,3.90
2023-04-23T00:25:16.338Z,3.90
2023-04-23T00:27:49.782Z,3.90
2023-04-23T00:30:23.414Z,3.90
2023-04-23T00:32:57.374Z,3.90
2023-04-23T00:35:30.931Z,3.90
2023-04-23T00:38:04.427Z,3.90
2023-04-23T00:40:39.392Z,3.90
2023-04-23T00:43:13.729Z,3.90
2023-04-23T00:45:47.360Z,3.90
2023-04-23T00:48:20.848Z,3.90
2023-04-23T00:51:00.386Z,3.90
2023-04-23T00:53:34.371Z,3.90
2023-04-23T00:56:09.694Z,3.90
2023-04-23T00:58:43.345Z,3.90
2023-04-23T01:01:18.352Z,3.90
2023-04-23T01:03:53.885Z,3.90
2023-04-23T01:06:28.794Z,3.90
2023-04-23T01:09:02.622Z,3.90
2023-04-23T01:11:38.953Z,3.90
2023-04-23T01:14:12.899Z,3.90
2023-04-23T01:16:47.131Z,3.90
2023-04-23T01:19:20.829Z,3.80
2023-04-23T01:21:55.188Z,3.80
2023-04-23T01:24:32.295Z,3.80
2023-04-23T01:27:06.154Z,3.70
2023-04-23T01:29:40.255Z,3.70
2023-04-23T01:32:13.883Z,3.70
2023-04-23T01:34:48.773Z,3.60
2023-04-23T01:37:23.506Z,3.60
2023-04-23T01:39:58.476Z,3.60
2023-04-23T01:42:31.934Z,3.50
2023-04-23T01:45:07.996Z,3.50
2023-04-23T01:47:42.504Z,3.40
2023-04-23T01:50:16.325Z,3.40
2023-04-23T01:52:49.814Z,3.40
2023-04-23T01:55:24.855Z,3.40
2023-04-23T01:57:58.357Z,3.30
2023-04-23T02:00:32.049Z,3.30
2023-04-23T02:03:05.754Z,3.30
2023-04-23T02:05:41.880Z,3.20
2023-04-23T02:08:15.345Z,3.20
2023-04-23T02:10:50.630Z,3.10
2023-04-23T02:13:24.683Z,3.10
2023-04-23T02:15:58.350Z,3.10
2023-04-23T02:18:31.958Z,3.00
2023-04-23T02:21:07.047Z,3.00
2023-04-23T02:23:40.687Z,3.00
2023-04-23T02:26:15.889Z,2.90
2023-04-23T02:28:49.588Z,2.90
2023-04-23T02:31:23.110Z,2.90
2023-04-23T02:33:56.592Z,2.90
2023-04-23T02:36:31.178Z,2.80
2023-04-23T02:39:04.794Z,2.80
2023-04-23T02:41:39.672Z,2.80
2023-04-23T02:44:13.133Z,2.80
2023-04-23T02:46:46.618Z,2.70
2023-04-23T02:49:20.694Z,2.70
2023-04-23T02:51:54.217Z,2.70
2023-04-23T02:54:27.708Z,2.60
2023-04-23T02:57:03.128Z,2.70
2023-04-23T02:59:36.765Z,2.60
2023-04-23T03:02:10.302Z,2.60
2023-04-23T03:04:44.171Z,2.50
2023-04-23T03:07:18.108Z,2.50
2023-04-23T03:09:51.661Z,2.50
2023-04-23T03:12:26.847Z,2.50
2023-04-23T03:15:00.336Z,2.40
2023-04-23T03:17:35.984Z,2.40
2023-04-23T03:20:11.756Z,2.40
2023-04-23T03:22:46.289Z,2.40
2023-04-23T03:25:20.439Z,2.40
2023-04-23T03:27:55.665Z,2.30
2023-04-23T03:30:30.690Z,2.30
2023-04-23T03:33:04.360Z,2.30
2023-04-23T03:35:37.909Z,2.30
2023-04-23T03:38:16.012Z,2.20
2023-04-23T03:40:49.759Z,2.20
2023-04-23T03:43:25.660Z,2.20
2023-04-23T03:46:19.406Z,2.20
2023-04-23T03:48:53.630Z,2.20
2023-04-23T03:51:33.069Z,2.20
2023-04-23T03:54:06.636Z,2.10
2023-04-23T03:56:42.972Z,2.10
2023-04-23T03:59:20.624Z,2.10
2023-04-23T04:01:56.420Z,2.10
2023-04-23T04:04:32.851Z,2.10
2023-04-23T04:07:07.479Z,2.10
2023-04-23T04:09:40.982Z,2.10
2023-04-23T04:12:14.805Z,2.10
2023-04-23T04:14:51.429Z,2.10
2023-04-23T04:17:25.029Z,2.10
2023-04-23T04:19:58.551Z,2.20
2023-04-23T04:22:32.173Z,2.20
2023-04-23T04:25:06.971Z,2.20
2023-04-23T04:27:41.504Z,2.20
2023-04-23T04:30:16.681Z,2.20
2023-04-23T04:32:50.974Z,2.20
2023-04-23T04:35:24.669Z,2.30
2023-04-23T04:37:58.925Z,2.30
2023-04-23T04:40:33.838Z,2.30
2023-04-23T04:43:07.490Z,2.40
2023-04-23T04:45:42.534Z,2.40
2023-04-23T04:48:15.971Z,2.40
2023-04-23T04:50:50.592Z,2.50
2023-04-23T04:53:24.075Z,2.50
2023-04-23T04:55:57.550Z,2.50
2023-04-23T04:58:31.564Z,2.60
2023-04-23T05:01:06.766Z,2.60
2023-04-23T05:03:40.438Z,2.60
2023-04-23T05:06:14.205Z,2.70
2023-04-23T05:08:49.103Z,2.70
2023-04-23T05:11:22.768Z,2.80
2023-04-23T05:13:56.307Z,2.80
2023-04-23T05:16:31.208Z,2.90
2023-04-23T05:19:04.694Z,2.90
2023-04-23T05:21:38.687Z,3.00
2023-04-23T05:24:12.470Z,3.10
2023-04-23T05:26:45.926Z,3.20
2023-04-23T05:29:19.581Z,3.30
2023-04-23T05:31:54.576Z,3.30
2023-04-23T05:34:28.215Z,3.40
2023-04-23T05:37:02.058Z,3.50
2023-04-23T05:39:35.533Z,3.60
2023-04-23T05:42:09.027Z,3.70
2023-04-23T05:44:43.205Z,3.70
2023-04-23T05:47:18.232Z,3.90
2023-04-23T05:49:51.729Z,4.00
2023-04-23T05:52:25.596Z,4.10
2023-04-23T05:54:59.113Z,4.20
2023-04-23T05:57:32.603Z,4.30
2023-04-23T06:00:09.791Z,4.50
2023-04-23T06:02:48.009Z,4.60
2023-04-23T06:05:22.088Z,4.80
2023-04-23T06:07:55.819Z,4.90
2023-04-23T06:10:29.346Z,5.10
2023-04-23T06:13:02.830Z,5.30
2023-04-23T06:15:36.279Z,5.50
2023-04-23T06:18:11.565Z,5.70
2023-04-23T06:20:45.192Z,5.90
2023-04-23T06:23:19.011Z,6.20
2023-04-23T06:25:52.446Z,6.40
2023-04-23T06:28:26.023Z,6.70
2023-04-23T06:31:31.777Z,7.00
2023-04-23T06:34:06.678Z,7.40
2023-04-23T06:36:40.211Z,7.70
2023-04-23T06:39:13.655Z,8.00
2023-04-23T06:41:47.219Z,8.40
2023-04-23T06:44:29.654Z,8.70
2023-04-23T06:47:03.368Z,9.00
2023-04-23T06:49:38.391Z,9.40
2023-04-23T06:52:11.965Z,9.70
2023-04-23T06:54:45.421Z,10.00
2023-04-23T06:57:18.987Z,10.40
2023-04-23T06:59:52.844Z,10.80
2023-04-23T07:02:29.483Z,11.20
2023-04-23T07:05:05.147Z,11.60
2023-04-23T07:07:38.711Z,12.00
2023-04-23T07:10:15.526Z,12.40
2023-04-23T07:12:50.883Z,12.80
2023-04-23T07:15:24.529Z,13.30
2023-04-23T07:17:58.865Z,13.70
2023-04-23T07:20:33.799Z,14.10
2023-04-23T07:23:07.350Z,14.60
2023-04-23T07:25:41.157Z,15.00
2023-04-23T07:28:14.695Z,15.40
2023-04-23T07:30:48.164Z,15.80
2023-04-23T07:33:21.697Z,16.30
2023-04-23T07:35:56.532Z,16.70
2023-04-23T07:38:29.973Z,17.00
2023-04-23T07:41:03.846Z,17.50
2023-04-23T07:43:37.327Z,17.90
2023-04-23T07:46:10.840Z,18.20
2023-04-23T07:48:44.309Z,18.30
2023-04-23T07:51:19.447Z,18.60
2023-04-23T07:53:54.292Z,18.90
2023-04-23T07:56:28.011Z,18.90
2023-04-23T07:59:01.570Z,19.10
2023-04-23T08:01:35.223Z,19.30
2023-04-23T08:04:09.079Z,19.70
2023-04-23T08:06:44.187Z,20.00
2023-04-23T08:09:17.648Z,20.30
2023-04-23T08:11:51.246Z,20.50
2023-04-23T08:14:24.705Z,20.70
2023-04-23T08:16:58.158Z,21.00
2023-04-23T08:19:34.949Z,21.20
2023-04-23T08:22:10.811Z,21.30
2023-04-23T08:24:45.068Z,21.60
2023-04-23T08:27:18.588Z,21.80
2023-04-23T08:29:52.116Z,22.10
2023-04-23T08:32:31.937Z,22.30
2023-04-23T08:35:06.058Z,22.60
2023-04-23T08:37:41.401Z,22.60
2023-04-23T08:40:15.522Z,22.90
2023-04-23T08:42:51.855Z,23.10
2023-04-23T08:45:26.305Z,23.30
2023-04-23T08:48:02.611Z,23.50
2023-04-23T08:50:38.802Z,23.80
2023-04-23T08:53:19.238Z,23.40
2023-04-23T08:55:53.648Z,23.50
2023-04-23T08:58:28.225Z,23.70
2023-04-23T09:01:02.568Z,24.00
2023-04-23T09:03:36.823Z,24.30
2023-04-23T09:06:10.871Z,24.60
2023-04-23T09:08:47.804Z,24.90
2023-04-23T09:11:23.839Z,25.20
2023-04-23T09:13:58.290Z,25.40
2023-04-23T09:16:32.116Z,25.50
2023-04-23T09:19:06.354Z,25.60
2023-04-23T09:21:41.046Z,25.90
2023-04-23T09:24:17.997Z,25.90
2023-04-23T09:26:52.552Z,26.00
2023-04-23T09:29:28.535Z,26.00
2023-04-23T09:32:09.079Z,26.00
2023-04-23T09:34:42.694Z,26.00
2023-04-23T09:37:20.186Z,26.10
2023-04-23T09:39:57.109Z,26.20
2023-04-23T09:42:31.268Z,26.10
2023-04-23T09:45:07.402Z,25.80
2023-04-23T09:47:43.161Z,25.90
2023-04-23T09:50:16.848Z,26.10
2023-04-23T09:52:57.155Z,26.20
2023-04-23T09:55:35.752Z,26.10
2023-04-23T09:58:13.893Z,26.10
2023-04-23T10:00:47.977Z,26.00
2023-04-23T10:03:28.689Z,25.90
2023-04-23T10:06:03.403Z,25.70
2023-04-23T10:08:37.502Z,25.40
2023-04-23T10:11:20.263Z,25.40
2023-04-23T10:13:55.724Z,25.50
2023-04-23T10:16:35.773Z,25.50
2023-04-23T10:19:17.178Z,25.50
2023-04-23T10:21:59.931Z,25.50
2023-04-23T10:24:41.683Z,25.50
2023-04-23T10:27:30.681Z,25.50
2023-04-23T10:30:13.368Z,25.60
2023-04-23T10:32:49.534Z,25.50
2023-04-23T10:35:23.119Z,25.60
2023-04-23T10:37:56.615Z,25.30
2023-04-23T10:40:33.197Z,24.90
2023-04-23T10:43:08.083Z,24.50
2023-04-23T10:45:41.630Z,24.30
2023-04-23T10:48:17.067Z,24.00
2023-04-23T10:51:14.546Z,23.50
2023-04-23T10:53:53.597Z,23.10
2023-04-23T10:56:29.440Z,22.70
2023-04-23T10:59:08.345Z,22.50
2023-04-23T11:01:41.900Z,22.40
2023-04-23T11:04:25.757Z,22.30
2023-04-23T11:07:05.440Z,22.10
2023-04-23T11:09:43.132Z,22.00
2023-04-23T11:12:34.054Z,22.00
2023-04-23T11:15:16.537Z,22.30
2023-04-23T11:18:05.586Z,22.50
2023-04-23T11:20:39.156Z,22.80
2023-04-23T11:23:32.378Z,23.10
2023-04-23T11:26:07.309Z,23.30
2023-04-23T11:28:44.309Z,23.50
2023-04-23T11:31:19.306Z,23.70
2023-04-23T11:33:52.872Z,23.60
2023-04-23T11:36:27.647Z,23.80
2023-04-23T11:39:03.084Z,23.80
2023-04-23T11:41:36.634Z,24.00
2023-04-23T11:44:10.179Z,24.10
2023-04-23T11:46:47.227Z,24.20
2023-04-23T11:49:21.784Z,24.20
2023-04-23T11:51:55.347Z,24.40
2023-04-23T11:54:30.174Z,24.70
2023-04-23T11:57:04.742Z,24.70
2023-04-23T11:59:38.230Z,24.70
2023-04-23T12:02:13.556Z,24.90
2023-04-23T12:04:47.114Z,25.00
2023-04-23T12:07:26.405Z,25.00
2023-04-23T12:10:01.573Z,25.20
2023-04-23T12:12:36.309Z,25.30
2023-04-23T12:15:10.550Z,25.30
2023-04-23T12:17:49.833Z,25.30
2023-04-23T12:20:23.518Z,25.30
2023-04-23T12:22:57.140Z,25.30
2023-04-23T12:25:30.992Z,25.40
2023-04-23T12:28:06.842Z,25.50
2023-04-23T12:30:45.249Z,25.60
2023-04-23T12:33:20.137Z,25.30
2023-04-23T12:35:53.581Z,25.40
2023-04-23T12:38:28.163Z,25.10
2023-04-23T12:41:02.100Z,25.20
2023-04-23T12:43:35.613Z,25.00
2023-04-23T12:46:09.222Z,25.20
2023-04-23T12:48:44.124Z,25.30
2023-04-23T12:51:17.634Z,25.10
2023-04-23T12:53:51.326Z,25.00
2023-04-23T12:56:24.806Z,24.90
2023-04-23T12:58:58.300Z,24.70
2023-04-23T13:01:32.046Z,24.70
2023-04-23T13:04:07.000Z,24.70
2023-04-23T13:06:41.059Z,24.80
2023-04-23T13:09:14.603Z,24.80
2023-04-23T13:11:49.723Z,24.80
2023-04-23T13:14:23.192Z,24.80
2023-04-23T13:16:58.009Z,24.70
2023-04-23T13:19:34.206Z,24.60
2023-04-23T13:22:07.808Z,24.80
2023-04-23T13:24:41.242Z,24.90
2023-04-23T13:27:14.723Z,25.10
2023-04-23T13:29:48.235Z,25.20
2023-04-23T13:32:22.755Z,25.30
2023-04-23T13:35:00.833Z,25.20
2023-04-23T13:37:34.629Z,25.10
2023-04-23T13:40:09.035Z,25.00
2023-04-23T13:42:42.590Z,25.10
2023-04-23T13:45:16.210Z,25.10
2023-04-23T13:47:50.438Z,24.90
2023-04-23T13:50:25.405Z,24.80
2023-04-23T13:52:58.876Z,24.50
2023-04-23T13:55:32.624Z,24.50
2023-04-23T13:58:07.508Z,24.60
2023-04-23T14:00:41.035Z,24.50
2023-04-23T14:03:15.164Z,24.40
2023-04-23T14:05:50.448Z,24.20
2023-04-23T14:08:24.195Z,24.10
2023-04-23T14:10:57.789Z,24.10
2023-04-23T14:13:32.024Z,24.20
2023-04-23T14:16:05.692Z,24.30
2023-04-23T14:18:39.172Z,24.20
2023-04-23T14:21:16.280Z,24.20
2023-04-23T14:23:57.349Z,24.10
2023-04-23T14:29:20.840Z,24.10
2023-04-23T14:31:54.298Z,24.20
2023-04-23T14:34:28.436Z,24.10
2023-04-23T14:37:03.302Z,24.00
2023-04-23T14:39:37.005Z,23.90
2023-04-23T14:42:10.698Z,23.80
2023-04-23T14:44:44.192Z,23.70
2023-04-23T14:47:19.231Z,23.50
2023-04-23T14:49:52.838Z,23.40
2023-04-23T14:52:27.979Z,23.40
2023-04-23T14:55:01.460Z,23.30
2023-04-23T14:57:34.995Z,23.30
2023-04-23T15:00:13.061Z,23.30
2023-04-23T15:02:47.303Z,23.30
2023-04-23T15:05:21.191Z,23.20
2023-04-23T15:07:56.254Z,23.10
2023-04-23T15:10:29.767Z,23.00
2023-04-23T15:13:08.032Z,22.80
2023-04-23T15:15:45.831Z,22.70
2023-04-23T15:18:20.611Z,22.60
2023-04-23T15:20:54.119Z,22.60
2023-04-23T15:23:29.171Z,22.50
2023-04-23T15:26:02.707Z,22.40
2023-04-23T15:28:36.568Z,22.40
2023-04-23T15:31:10.050Z,22.30
2023-04-23T15:33:43.568Z,22.10
2023-04-23T15:36:17.005Z,21.90
2023-04-23T15:38:51.862Z,21.80
2023-04-23T15:41:25.359Z,21.70
2023-04-23T15:43:58.802Z,21.70
2023-04-23T15:46:32.271Z,21.60
2023-04-23T15:49:06.109Z,21.50
2023-04-23T15:51:39.622Z,21.40
2023-04-23T15:54:14.573Z,21.40
2023-04-23T15:56:48.066Z,21.20
2023-04-23T15:59:21.517Z,21.00
2023-04-23T16:01:55.015Z,20.80
2023-04-23T16:04:28.677Z,20.70
2023-04-23T16:07:02.303Z,20.50
2023-04-23T16:09:37.259Z,20.30
2023-04-23T16:12:10.893Z,20.10
2023-04-23T16:14:44.479Z,20.00
2023-04-23T16:17:18.068Z,19.80
2023-04-23T16:19:51.635Z,19.60
2023-04-23T16:22:25.586Z,19.50
2023-04-23T16:25:00.512Z,19.40
2023-04-23T16:27:34.309Z,19.40
2023-04-23T16:30:09.082Z,19.20
2023-04-23T16:32:42.618Z,19.10
2023-04-23T16:35:16.218Z,19.10
2023-04-23T16:37:49.737Z,19.00
2023-04-23T16:40:24.662Z,18.90
2023-04-23T16:42:58.148Z,18.90
2023-04-23T16:45:31.585Z,18.70
2023-04-23T16:48:05.166Z,18.70
2023-04-23T16:50:38.641Z,18.60
2023-04-23T16:53:12.255Z,18.50
2023-04-23T16:55:48.516Z,18.40
2023-04-23T16:58:22.815Z,18.40
2023-04-23T17:00:56.352Z,18.20
2023-04-23T17:03:30.074Z,18.10
2023-04-23T17:06:11.334Z,18.00
2023-04-23T17:08:44.878Z,17.90
2023-04-23T17:11:19.904Z,17.80
2023-04-23T17:13:53.529Z,17.70
2023-04-23T17:16:27.604Z,17.60
2023-04-23T17:19:01.281Z,17.50
2023-04-23T17:21:34.997Z,17.40
2023-04-23T17:24:08.682Z,17.30
2023-04-23T17:26:43.775Z,17.20
2023-04-23T17:29:17.317Z,17.10
2023-04-23T17:31:50.897Z,17.00
2023-04-23T17:34:24.389Z,16.90
2023-04-23T17:36:57.942Z,16.80
2023-04-23T17:39:31.407Z,16.70
2023-04-23T17:42:07.885Z,16.60
2023-04-23T17:44:41.702Z,16.40
2023-04-23T17:47:15.430Z,16.30
2023-04-23T17:49:48.952Z,16.20
2023-04-23T17:52:22.540Z,16.00
2023-04-23T17:54:56.834Z,15.90
2023-04-23T17:57:31.808Z,15.80
2023-04-23T18:00:09.746Z,15.60
2023-04-23T18:02:46.667Z,15.40
2023-04-23T18:05:20.328Z,15.30
2023-04-23T18:07:54.144Z,15.10
2023-04-23T18:10:28.529Z,15.00
2023-04-23T18:13:05.338Z,14.90
2023-04-23T18:15:40.981Z,14.70
2023-04-23T18:18:14.506Z,14.60
2023-04-23T18:20:48.096Z,14.40
2023-04-23T18:23:22.270Z,14.30
2023-04-23T18:25:56.649Z,14.10
2023-04-23T18:28:32.905Z,14.00
2023-04-23T18:31:06.622Z,13.90
2023-04-23T18:33:43.888Z,13.70
2023-04-23T18:36:25.058Z,13.60
2023-04-23T18:38:58.823Z,13.50
2023-04-23T18:41:32.437Z,13.30
2023-04-23T18:44:07.701Z,13.20
2023-04-23T18:46:41.361Z,13.10
2023-04-23T18:49:40.421Z,13.00
2023-04-23T18:52:14.129Z,12.90
2023-04-23T18:54:47.651Z,12.70
2023-04-23T18:57:21.126Z,12.60
2023-04-23T18:59:56.053Z,12.50
2023-04-23T19:05:08.868Z,12.30
2023-04-23T19:07:43.086Z,12.20
2023-04-23T19:10:17.453Z,12.10
2023-04-23T19:12:50.999Z,11.90
2023-04-23T19:15:25.920Z,11.80
2023-04-23T19:17:59.617Z,11.70
2023-04-23T19:20:33.436Z,11.60
2023-04-23T19:23:08.920Z,11.50
2023-04-23T19:25:42.394Z,11.30
2023-04-23T19:28:15.905Z,11.20
2023-04-23T19:30:51.009Z,11.10
2023-04-23T19:33:24.775Z,11.10
2023-04-23T19:35:58.375Z,10.90
2023-04-23T19:38:31.873Z,10.80
2023-04-23T19:41:06.389Z,10.70
2023-04-23T19:43:40.406Z,10.70
2023-04-23T19:46:15.331Z,10.60
2023-04-23T19:48:48.832Z,10.50
2023-04-23T19:51:25.935Z,10.40
2023-04-23T19:53:59.996Z,10.30
2023-04-23T19:56:33.465Z,10.20
2023-04-23T19:59:09.713Z,10.20
2023-04-23T20:01:44.613Z,10.10
2023-04-23T20:04:18.299Z,10.00
2023-04-23T20:06:51.902Z,9.90
2023-04-23T20:09:25.972Z,9.80
2023-04-23T20:11:59.579Z,9.70
2023-04-23T20:14:33.071Z,9.60
2023-04-23T20:17:08.516Z,9.60
2023-04-23T20:19:42.525Z,9.50
2023-04-23T20:22:16.528Z,9.50
2023-04-23T20:24:50.124Z,9.40
2023-04-23T20:27:23.909Z,9.30
2023-04-23T20:29:57.545Z,9.30
2023-04-23T20:32:32.486Z,9.20
2023-04-23T20:35:06.882Z,9.10
2023-04-23T20:37:40.805Z,9.10
2023-04-23T20:40:15.454Z,9.00
2023-04-23T20:42:51.650Z,9.00
2023-04-23T20:45:25.131Z,8.90
2023-04-23T20:48:02.405Z,8.80
2023-04-23T20:50:35.990Z,8.70
2023-04-23T20:53:09.501Z,8.70
2023-04-23T20:55:43.259Z,8.60
2023-04-23T20:58:16.735Z,8.60
2023-04-23T21:00:51.355Z,8.50
2023-04-23T21:03:27.540Z,8.40
2023-04-23T21:06:01.193Z,8.40
2023-04-23T21:08:34.757Z,8.30
2023-04-23T21:11:11.136Z,8.30
2023-04-23T21:13:44.891Z,8.20
2023-04-23T21:16:19.089Z,8.20
2023-04-23T21:18:54.710Z,8.10
2023-04-23T21:21:29.742Z,8.10
2023-04-23T21:24:03.307Z,8.00
2023-04-23T21:26:36.823Z,8.00
2023-04-23T21:29:10.346Z,7.90
2023-04-23T21:31:46.343Z,7.90
2023-04-23T21:34:21.487Z,7.80
2023-04-23T21:36:54.969Z,7.80
2023-04-23T21:39:28.410Z,7.70
2023-04-23T21:42:02.277Z,7.70
2023-04-23T21:44:37.367Z,7.60
2023-04-23T21:47:11.186Z,7.50
2023-04-23T21:49:46.295Z,7.50
2023-04-23T21:52:20.319Z,7.40
2023-04-23T21:54:53.769Z,7.40
2023-04-23T21:57:27.325Z,7.30
2023-04-23T22:00:00.961Z,7.30
2023-04-23T22:02:34.622Z,7.20
2023-04-23T22:05:10.577Z,7.20
2023-04-23T22:07:44.682Z,7.20
2023-04-23T22:10:19.437Z,7.10
2023-04-23T22:12:53.163Z,7.00
2023-04-23T22:15:28.936Z,7.00
2023-04-23T22:18:03.182Z,6.90
2023-04-23T22:20:39.617Z,6.80
2023-04-23T22:23:13.125Z,6.80
2023-04-23T22:25:46.581Z,6.70
2023-04-23T22:28:20.062Z,6.70
2023-04-23T22:30:53.743Z,6.70
2023-04-23T22:33:28.411Z,6.60
2023-04-23T22:36:03.821Z,6.60
2023-04-23T22:38:37.297Z,6.60
2023-04-23T22:41:10.737Z,6.50
2023-04-23T22:43:44.262Z,6.50
2023-04-23T22:46:17.771Z,6.40
2023-04-23T22:48:52.728Z,6.40
2023-04-23T22:51:27.718Z,6.30
2023-04-23T22:54:01.233Z,6.30
2023-04-23T22:56:34.862Z,6.30
2023-04-23T22:59:08.404Z,6.20
2023-04-23T23:01:42.086Z,6.20
2023-04-23T23:04:15.918Z,6.10
2023-04-23T23:06:50.815Z,6.10
2023-04-23T23:09:24.382Z,6.10
2023-04-23T23:11:57.840Z,6.00
2023-04-23T23:14:31.932Z,6.00
2023-04-23T23:17:06.199Z,6.00
2023-04-23T23:19:39.680Z,5.90
2023-04-23T23:22:14.733Z,5.90
2023-04-23T23:24:48.202Z,5.80
2023-04-23T23:27:21.684Z,5.80
2023-04-23T23:29:55.142Z,5.80
2023-04-23T23:32:28.615Z,5.70
2023-04-23T23:35:02.113Z,5.70
2023-04-23T23:37:36.998Z,5.60
2023-04-23T23:40:11.804Z,5.60
2023-04-23T23:42:45.242Z,5.60
2023-04-23T23:45:18.670Z,5.50
2023-04-23T23:47:52.568Z,5.50
2023-04-23T23:50:26.186Z,5.40
2023-04-23T23:53:01.170Z,5.40
2023-04-23T23:55:34.607Z,5.40
2023-04-23T23:58:08.106Z,5.30
